sensor_id;sensor_type;location;lat;lon;timestamp;pressure;altitude;pressure_sealevel;temperature;humidity
80333;BME280;69652;51.864;-2.246;2024-02-21T00:02:08;101778.28;;;10.15;87.63
80333;BME280;69652;51.864;-2.246;2024-02-21T00:04:33;101766.91;;;10.13;88.38
80333;BME280;69652;51.864;-2.246;2024-02-21T00:07:00;101765.00;;;10.08;88.58
80333;BME280;69652;51.864;-2.246;2024-02-21T00:09:25;101758.50;;;10.04;89.82
80333;BME280;69652;51.864;-2.246;2024-02-21T00:11:51;101760.13;;;10.05;89.94
80333;BME280;69652;51.864;-2.246;2024-02-21T00:14:16;101759.59;;;9.98;90.83
80333;BME280;69652;51.864;-2.246;2024-02-21T00:16:42;101760.69;;;9.97;91.54
80333;BME280;69652;51.864;-2.246;2024-02-21T00:19:07;101752.81;;;9.96;90.39
80333;BME280;69652;51.864;-2.246;2024-02-21T00:21:33;101753.38;;;9.98;91.42
80333;BME280;69652;51.864;-2.246;2024-02-21T00:23:58;101747.41;;;9.96;92.35
80333;BME280;69652;51.864;-2.246;2024-02-21T00:26:24;101748.22;;;9.91;91.91
80333;BME280;69652;51.864;-2.246;2024-02-21T00:28:51;101740.63;;;9.93;91.81
80333;BME280;69652;51.864;-2.246;2024-02-21T00:31:16;101745.22;;;9.93;92.31
80333;BME280;69652;51.864;-2.246;2024-02-21T00:33:42;101738.47;;;9.90;92.44
80333;BME280;69652;51.864;-2.246;2024-02-21T00:36:08;101740.66;;;9.88;93.16
80333;BME280;69652;51.864;-2.246;2024-02-21T00:38:33;101724.09;;;9.90;92.97
80333;BME280;69652;51.864;-2.246;2024-02-21T00:40:59;101723.03;;;9.91;93.16
80333;BME280;69652;51.864;-2.246;2024-02-21T00:43:24;101713.50;;;9.93;93.63
80333;BME280;69652;51.864;-2.246;2024-02-21T00:45:50;101704.03;;;9.91;92.04
80333;BME280;69652;51.864;-2.246;2024-02-21T00:48:16;101701.84;;;9.93;93.28
80333;BME280;69652;51.864;-2.246;2024-02-21T00:50:41;101693.19;;;9.91;94.00
80333;BME280;69652;51.864;-2.246;2024-02-21T00:53:07;101688.81;;;9.95;93.62
80333;BME280;69652;51.864;-2.246;2024-02-21T00:55:33;101695.31;;;9.94;92.84
80333;BME280;69652;51.864;-2.246;2024-02-21T00:57:58;101687.19;;;9.94;93.88
80333;BME280;69652;51.864;-2.246;2024-02-21T01:00:24;101671.19;;;9.92;93.58
80333;BME280;69652;51.864;-2.246;2024-02-21T01:02:49;101675.00;;;9.91;94.47
80333;BME280;69652;51.864;-2.246;2024-02-21T01:05:15;101668.47;;;9.92;94.52
80333;BME280;69652;51.864;-2.246;2024-02-21T01:07:40;101663.88;;;9.93;94.65
80333;BME280;69652;51.864;-2.246;2024-02-21T01:10:06;101656.81;;;9.92;95.00
80333;BME280;69652;51.864;-2.246;2024-02-21T01:12:32;101651.66;;;9.95;95.11
80333;BME280;69652;51.864;-2.246;2024-02-21T01:14:58;101653.84;;;9.93;93.91
80333;BME280;69652;51.864;-2.246;2024-02-21T01:17:23;101634.59;;;9.95;95.16
80333;BME280;69652;51.864;-2.246;2024-02-21T01:19:49;101626.44;;;9.95;95.62
80333;BME280;69652;51.864;-2.246;2024-02-21T01:22:14;101620.75;;;9.91;96.24
80333;BME280;69652;51.864;-2.246;2024-02-21T01:24:41;101622.97;;;9.89;97.38
80333;BME280;69652;51.864;-2.246;2024-02-21T01:27:07;101618.63;;;9.88;97.14
80333;BME280;69652;51.864;-2.246;2024-02-21T01:29:32;101602.34;;;9.88;97.56
80333;BME280;69652;51.864;-2.246;2024-02-21T01:31:58;101598.28;;;9.86;97.88
80333;BME280;69652;51.864;-2.246;2024-02-21T01:34:23;101591.50;;;9.88;96.97
80333;BME280;69652;51.864;-2.246;2024-02-21T01:36:49;101585.00;;;9.89;96.91
80333;BME280;69652;51.864;-2.246;2024-02-21T01:39:15;101579.28;;;9.91;97.18
80333;BME280;69652;51.864;-2.246;2024-02-21T01:41:41;101577.63;;;9.95;96.84
80333;BME280;69652;51.864;-2.246;2024-02-21T01:44:06;101572.75;;;9.97;96.12
80333;BME280;69652;51.864;-2.246;2024-02-21T01:46:32;101565.16;;;9.99;96.16
80333;BME280;69652;51.864;-2.246;2024-02-21T01:48:58;101561.34;;;10.00;95.69
80333;BME280;69652;51.864;-2.246;2024-02-21T01:51:24;101554.25;;;10.04;96.07
80333;BME280;69652;51.864;-2.246;2024-02-21T01:53:51;101548.31;;;10.02;96.30
80333;BME280;69652;51.864;-2.246;2024-02-21T01:56:18;101548.31;;;10.02;96.14
80333;BME280;69652;51.864;-2.246;2024-02-21T01:58:45;101539.88;;;10.03;95.58
80333;BME280;69652;51.864;-2.246;2024-02-21T02:01:11;101536.91;;;10.05;96.20
80333;BME280;69652;51.864;-2.246;2024-02-21T02:03:37;101528.25;;;10.03;96.05
80333;BME280;69652;51.864;-2.246;2024-02-21T02:06:05;101535.31;;;9.99;97.01
80333;BME280;69652;51.864;-2.246;2024-02-21T02:08:31;101532.34;;;10.00;96.85
80333;BME280;69652;51.864;-2.246;2024-02-21T02:10:57;101530.72;;;9.94;97.01
80333;BME280;69652;51.864;-2.246;2024-02-21T02:13:23;101519.59;;;9.96;97.28
80333;BME280;69652;51.864;-2.246;2024-02-21T02:15:49;101512.00;;;9.93;97.26
80333;BME280;69652;51.864;-2.246;2024-02-21T02:18:16;101503.06;;;9.92;96.74
80333;BME280;69652;51.864;-2.246;2024-02-21T02:20:43;101490.84;;;9.95;97.06
80333;BME280;69652;51.864;-2.246;2024-02-21T02:23:24;101495.19;;;9.96;96.52
80333;BME280;69652;51.864;-2.246;2024-02-21T02:25:50;101487.88;;;9.96;96.17
80333;BME280;69652;51.864;-2.246;2024-02-21T02:28:20;101487.88;;;9.96;95.76
80333;BME280;69652;51.864;-2.246;2024-02-21T02:30:46;101482.69;;;10.00;95.45
80333;BME280;69652;51.864;-2.246;2024-02-21T02:33:11;101474.56;;;10.00;95.62
80333;BME280;69652;51.864;-2.246;2024-02-21T02:35:37;101465.88;;;9.98;95.51
80333;BME280;69652;51.864;-2.246;2024-02-21T02:38:03;101459.13;;;9.95;95.35
80333;BME280;69652;51.864;-2.246;2024-02-21T02:40:29;101459.41;;;9.94;95.20
80333;BME280;69652;51.864;-2.246;2024-02-21T02:42:55;101449.38;;;9.94;95.59
80333;BME280;69652;51.864;-2.246;2024-02-21T02:45:22;101443.72;;;9.91;95.66
80333;BME280;69652;51.864;-2.246;2024-02-21T02:47:54;101445.88;;;9.89;96.18
80333;BME280;69652;51.864;-2.246;2024-02-21T02:50:22;101433.41;;;9.88;96.41
80333;BME280;69652;51.864;-2.246;2024-02-21T02:52:48;101424.75;;;9.86;96.26
80333;BME280;69652;51.864;-2.246;2024-02-21T02:55:14;101422.38;;;9.79;96.50
80333;BME280;69652;51.864;-2.246;2024-02-21T02:57:40;101417.72;;;9.79;96.76
80333;BME280;69652;51.864;-2.246;2024-02-21T03:00:10;101406.59;;;9.81;96.78
80333;BME280;69652;51.864;-2.246;2024-02-21T03:02:37;101406.59;;;9.81;96.00
80333;BME280;69652;51.864;-2.246;2024-02-21T03:05:14;101396.56;;;9.82;96.16
80333;BME280;69652;51.864;-2.246;2024-02-21T03:07:40;101396.28;;;9.83;96.18
80333;BME280;69652;51.864;-2.246;2024-02-21T03:10:06;101388.44;;;9.82;96.25
80333;BME280;69652;51.864;-2.246;2024-02-21T03:12:32;101387.41;;;9.77;96.28
80333;BME280;69652;51.864;-2.246;2024-02-21T03:14:57;101366.81;;;9.76;95.57
80333;BME280;69652;51.864;-2.246;2024-02-21T03:17:24;101366.28;;;9.74;95.04
80333;BME280;69652;51.864;-2.246;2024-02-21T03:19:50;101373.06;;;9.72;95.15
80333;BME280;69652;51.864;-2.246;2024-02-21T03:22:16;101358.44;;;9.68;94.89
80333;BME280;69652;51.864;-2.246;2024-02-21T03:24:42;101360.09;;;9.64;94.91
80333;BME280;69652;51.864;-2.246;2024-02-21T03:27:07;101358.75;;;9.61;95.34
80333;BME280;69652;51.864;-2.246;2024-02-21T03:29:33;101348.47;;;9.58;95.04
80333;BME280;69652;51.864;-2.246;2024-02-21T03:31:59;101344.44;;;9.56;95.00
80333;BME280;69652;51.864;-2.246;2024-02-21T03:34:24;101339.59;;;9.53;94.81
80333;BME280;69652;51.864;-2.246;2024-02-21T03:36:50;101331.75;;;9.46;94.85
80333;BME280;69652;51.864;-2.246;2024-02-21T03:39:16;101336.09;;;9.47;94.55
80333;BME280;69652;51.864;-2.246;2024-02-21T03:41:41;101308.50;;;9.40;94.57
80333;BME280;69652;51.864;-2.246;2024-02-21T03:44:07;101306.31;;;9.42;94.63
80333;BME280;69652;51.864;-2.246;2024-02-21T03:46:32;101296.31;;;9.43;94.62
80333;BME280;69652;51.864;-2.246;2024-02-21T03:48:58;101298.22;;;9.37;93.15
80333;BME280;69652;51.864;-2.246;2024-02-21T03:51:23;101290.63;;;9.39;92.61
80333;BME280;69652;51.864;-2.246;2024-02-21T03:53:49;101273.28;;;9.40;91.03
80333;BME280;69652;51.864;-2.246;2024-02-21T03:56:14;101262.72;;;9.38;90.23
80333;BME280;69652;51.864;-2.246;2024-02-21T03:58:40;101270.03;;;9.38;88.79
80333;BME280;69652;51.864;-2.246;2024-02-21T04:01:06;101262.19;;;9.36;88.30
80333;BME280;69652;51.864;-2.246;2024-02-21T04:03:31;101243.22;;;9.36;87.58
80333;BME280;69652;51.864;-2.246;2024-02-21T04:05:57;101237.00;;;9.36;87.64
80333;BME280;69652;51.864;-2.246;2024-02-21T04:08:23;101229.16;;;9.34;87.50
80333;BME280;69652;51.864;-2.246;2024-02-21T04:10:49;101223.19;;;9.32;88.15
80333;BME280;69652;51.864;-2.246;2024-02-21T04:13:14;101209.16;;;9.30;88.31
80333;BME280;69652;51.864;-2.246;2024-02-21T04:15:40;101206.72;;;9.29;89.09
80333;BME280;69652;51.864;-2.246;2024-02-21T04:18:06;101196.16;;;9.27;89.38
80333;BME280;69652;51.864;-2.246;2024-02-21T04:20:31;101193.75;;;9.26;89.21
80333;BME280;69652;51.864;-2.246;2024-02-21T04:22:57;101188.06;;;9.22;89.58
80333;BME280;69652;51.864;-2.246;2024-02-21T04:25:23;101192.41;;;9.23;89.60
80333;BME280;69652;51.864;-2.246;2024-02-21T04:27:49;101182.38;;;9.24;89.87
80333;BME280;69652;51.864;-2.246;2024-02-21T04:30:15;101172.34;;;9.24;89.87
80333;BME280;69652;51.864;-2.246;2024-02-21T04:32:41;101173.44;;;9.23;90.25
80333;BME280;69652;51.864;-2.246;2024-02-21T04:35:07;101169.38;;;9.26;90.34
80333;BME280;69652;51.864;-2.246;2024-02-21T04:37:33;101162.31;;;9.25;91.15
80333;BME280;69652;51.864;-2.246;2024-02-21T04:39:58;101150.69;;;9.24;90.46
80333;BME280;69652;51.864;-2.246;2024-02-21T04:42:24;101145.78;;;9.26;89.92
80333;BME280;69652;51.864;-2.246;2024-02-21T04:44:50;101143.38;;;9.25;90.42
80333;BME280;69652;51.864;-2.246;2024-02-21T04:47:15;101145.78;;;9.26;90.11
80333;BME280;69652;51.864;-2.246;2024-02-21T04:49:41;101126.56;;;9.28;90.29
80333;BME280;69652;51.864;-2.246;2024-02-21T04:52:06;101123.28;;;9.31;89.79
80333;BME280;69652;51.864;-2.246;2024-02-21T04:54:32;101112.44;;;9.31;89.64
80333;BME280;69652;51.864;-2.246;2024-02-21T04:56:57;101104.00;;;9.32;90.13
80333;BME280;69652;51.864;-2.246;2024-02-21T04:59:23;101087.81;;;9.27;89.22
80333;BME280;69652;51.864;-2.246;2024-02-21T05:01:49;101092.41;;;9.32;89.05
80333;BME280;69652;51.864;-2.246;2024-02-21T05:04:15;101086.38;;;9.35;89.11
80333;BME280;69652;51.864;-2.246;2024-02-21T05:06:41;101085.00;;;9.37;88.54
80333;BME280;69652;51.864;-2.246;2024-02-21T05:09:07;101083.13;;;9.38;89.69
80333;BME280;69652;51.864;-2.246;2024-02-21T05:11:36;101089.63;;;9.37;88.60
80333;BME280;69652;51.864;-2.246;2024-02-21T05:14:05;101070.66;;;9.37;88.67
80333;BME280;69652;51.864;-2.246;2024-02-21T05:16:31;101059.81;;;9.37;88.92
80333;BME280;69652;51.864;-2.246;2024-02-21T05:18:57;101043.28;;;9.38;88.41
80333;BME280;69652;51.864;-2.246;2024-02-21T05:21:23;101030.25;;;9.40;88.25
80333;BME280;69652;51.864;-2.246;2024-02-21T05:23:53;101029.44;;;9.40;88.78
80333;BME280;69652;51.864;-2.246;2024-02-21T05:26:24;101017.81;;;9.39;89.30
80333;BME280;69652;51.864;-2.246;2024-02-21T05:28:49;101014.06;;;9.35;89.00
80333;BME280;69652;51.864;-2.246;2024-02-21T05:31:16;101005.63;;;9.37;89.70
80333;BME280;69652;51.864;-2.246;2024-02-21T05:33:43;100995.63;;;9.37;89.69
80333;BME280;69652;51.864;-2.246;2024-02-21T05:36:08;100982.63;;;9.34;90.67
80333;BME280;69652;51.864;-2.246;2024-02-21T05:38:34;100971.28;;;9.32;91.71
80333;BME280;69652;51.864;-2.246;2024-02-21T05:41:00;100966.22;;;9.26;91.51
80333;BME280;69652;51.864;-2.246;2024-02-21T05:43:26;100966.50;;;9.24;93.47
80333;BME280;69652;51.864;-2.246;2024-02-21T05:45:52;100937.81;;;9.23;93.82
80333;BME280;69652;51.864;-2.246;2024-02-21T05:48:17;100941.41;;;9.19;94.26
80333;BME280;69652;51.864;-2.246;2024-02-21T05:50:43;100939.50;;;9.19;93.69
80333;BME280;69652;51.864;-2.246;2024-02-21T05:53:08;100938.41;;;9.20;95.95
80333;BME280;69652;51.864;-2.246;2024-02-21T05:55:35;100935.16;;;9.18;94.70
80333;BME280;69652;51.864;-2.246;2024-02-21T05:58:01;100919.44;;;9.20;96.09
80333;BME280;69652;51.864;-2.246;2024-02-21T06:00:28;100914.03;;;9.20;95.91
80333;BME280;69652;51.864;-2.246;2024-02-21T06:02:53;100899.97;;;9.18;95.28
80333;BME280;69652;51.864;-2.246;2024-02-21T06:05:19;100891.25;;;9.21;96.11
80333;BME280;69652;51.864;-2.246;2024-02-21T06:07:44;100884.97;;;9.26;96.38
80333;BME280;69652;51.864;-2.246;2024-02-21T06:10:10;100894.47;;;9.23;95.58
80333;BME280;69652;51.864;-2.246;2024-02-21T06:12:36;100884.97;;;9.26;95.85
80333;BME280;69652;51.864;-2.246;2024-02-21T06:15:01;100883.59;;;9.28;96.10
80333;BME280;69652;51.864;-2.246;2024-02-21T06:17:27;100875.19;;;9.30;96.09
80333;BME280;69652;51.864;-2.246;2024-02-21T06:19:52;100866.25;;;9.29;95.95
80333;BME280;69652;51.864;-2.246;2024-02-21T06:22:18;100848.91;;;9.30;95.83
80333;BME280;69652;51.864;-2.246;2024-02-21T06:24:43;100838.06;;;9.30;96.35
80333;BME280;69652;51.864;-2.246;2024-02-21T06:27:10;100835.34;;;9.30;96.25
80333;BME280;69652;51.864;-2.246;2024-02-21T06:29:37;100829.66;;;9.32;96.09
80333;BME280;69652;51.864;-2.246;2024-02-21T06:32:02;100837.25;;;9.30;96.00
80333;BME280;69652;51.864;-2.246;2024-02-21T06:34:28;100826.41;;;9.30;95.13
80333;BME280;69652;51.864;-2.246;2024-02-21T06:36:53;100807.16;;;9.31;95.27
80333;BME280;69652;51.864;-2.246;2024-02-21T06:39:19;100792.31;;;9.29;95.11
80333;BME280;69652;51.864;-2.246;2024-02-21T06:41:44;100766.38;;;9.23;94.51
80333;BME280;69652;51.864;-2.246;2024-02-21T06:44:10;100766.88;;;9.25;94.33
80333;BME280;69652;51.864;-2.246;2024-02-21T06:46:36;100748.75;;;9.25;93.92
80333;BME280;69652;51.864;-2.246;2024-02-21T06:49:02;100758.47;;;9.26;93.54
80333;BME280;69652;51.864;-2.246;2024-02-21T06:51:29;100736.28;;;9.24;93.57
80333;BME280;69652;51.864;-2.246;2024-02-21T06:53:55;100731.69;;;9.25;93.19
80333;BME280;69652;51.864;-2.246;2024-02-21T06:56:23;100730.28;;;9.27;93.46
80333;BME280;69652;51.864;-2.246;2024-02-21T06:58:52;100733.81;;;9.28;93.97
80333;BME280;69652;51.864;-2.246;2024-02-21T07:01:18;100728.63;;;9.31;93.42
80333;BME280;69652;51.864;-2.246;2024-02-21T07:03:43;100719.59;;;9.36;94.13
80333;BME280;69652;51.864;-2.246;2024-02-21T07:06:09;100711.75;;;9.34;94.08
80333;BME280;69652;51.864;-2.246;2024-02-21T07:08:34;100708.75;;;9.36;94.21
80333;BME280;69652;51.864;-2.246;2024-02-21T07:11:00;100686.78;;;9.37;94.17
80333;BME280;69652;51.864;-2.246;2024-02-21T07:13:25;100684.59;;;9.39;94.30
80333;BME280;69652;51.864;-2.246;2024-02-21T07:15:51;100679.19;;;9.39;94.58
80333;BME280;69652;51.864;-2.246;2024-02-21T07:18:16;100666.16;;;9.41;95.19
80333;BME280;69652;51.864;-2.246;2024-02-21T07:20:42;100655.09;;;9.38;95.22
80333;BME280;69652;51.864;-2.246;2024-02-21T07:23:08;100648.06;;;9.37;96.34
80333;BME280;69652;51.864;-2.246;2024-02-21T07:25:34;100638.03;;;9.37;95.94
80333;BME280;69652;51.864;-2.246;2024-02-21T07:27:59;100638.03;;;9.37;96.68
80333;BME280;69652;51.864;-2.246;2024-02-21T07:30:25;100643.16;;;9.39;97.23
80333;BME280;69652;51.864;-2.246;2024-02-21T07:32:51;100630.94;;;9.41;97.06
80333;BME280;69652;51.864;-2.246;2024-02-21T07:35:19;100610.88;;;9.43;97.27
80333;BME280;69652;51.864;-2.246;2024-02-21T07:37:45;100609.78;;;9.44;97.67
80333;BME280;69652;51.864;-2.246;2024-02-21T07:40:15;100589.19;;;9.43;98.02
80333;BME280;69652;51.864;-2.246;2024-02-21T07:42:41;100576.75;;;9.41;98.10
80333;BME280;69652;51.864;-2.246;2024-02-21T07:45:09;100579.66;;;9.45;97.93
80333;BME280;69652;51.864;-2.246;2024-02-21T07:47:38;100585.56;;;9.47;97.59
80333;BME280;69652;51.864;-2.246;2024-02-21T07:50:04;100569.25;;;9.52;98.09
80333;BME280;69652;51.864;-2.246;2024-02-21T07:52:30;100559.22;;;9.53;97.98
80333;BME280;69652;51.864;-2.246;2024-02-21T07:54:56;100572.47;;;9.54;97.80
80333;BME280;69652;51.864;-2.246;2024-02-21T07:57:22;100557.69;;;9.60;97.38
80333;BME280;69652;51.864;-2.246;2024-02-21T07:59:48;100568.44;;;9.65;97.23
80333;BME280;69652;51.864;-2.246;2024-02-21T08:02:16;100558.13;;;9.67;96.99
80333;BME280;69652;51.864;-2.246;2024-02-21T08:04:42;100555.72;;;9.66;97.02
80333;BME280;69652;51.864;-2.246;2024-02-21T08:07:08;100553.47;;;9.68;97.30
80333;BME280;69652;51.864;-2.246;2024-02-21T08:09:34;100555.88;;;9.69;96.95
80333;BME280;69652;51.864;-2.246;2024-02-21T08:12:02;100545.56;;;9.71;97.32
80333;BME280;69652;51.864;-2.246;2024-02-21T08:14:27;100531.19;;;9.71;97.52
80333;BME280;69652;51.864;-2.246;2024-02-21T08:16:53;100533.41;;;9.69;97.50
80333;BME280;69652;51.864;-2.246;2024-02-21T08:19:20;100524.16;;;9.70;97.93
80333;BME280;69652;51.864;-2.246;2024-02-21T08:21:45;100519.38;;;9.67;97.68
80333;BME280;69652;51.864;-2.246;2024-02-21T08:24:14;100524.97;;;9.70;97.98
80333;BME280;69652;51.864;-2.246;2024-02-21T08:26:43;100524.16;;;9.70;97.36
80333;BME280;69652;51.864;-2.246;2024-02-21T08:29:10;100499.97;;;9.73;97.61
80333;BME280;69652;51.864;-2.246;2024-02-21T08:31:37;100486.22;;;9.70;98.21
80333;BME280;69652;51.864;-2.246;2024-02-21T08:34:02;100494.97;;;9.67;98.58
80333;BME280;69652;51.864;-2.246;2024-02-21T08:36:35;100487.97;;;9.66;98.39
80333;BME280;69652;51.864;-2.246;2024-02-21T08:39:02;100472.50;;;9.66;98.83
80333;BME280;69652;51.864;-2.246;2024-02-21T08:41:31;100468.47;;;9.64;98.04
80333;BME280;69652;51.864;-2.246;2024-02-21T08:43:57;100470.09;;;9.65;98.83
80333;BME280;69652;51.864;-2.246;2024-02-21T08:46:23;100468.19;;;9.65;99.13
80333;BME280;69652;51.864;-2.246;2024-02-21T08:48:50;100448.72;;;9.63;98.94
80333;BME280;69652;51.864;-2.246;2024-02-21T08:51:19;100444.09;;;9.64;98.82
80333;BME280;69652;51.864;-2.246;2024-02-21T08:53:48;100437.75;;;9.68;98.75
80333;BME280;69652;51.864;-2.246;2024-02-21T08:56:13;100430.41;;;9.69;98.75
80333;BME280;69652;51.864;-2.246;2024-02-21T08:58:40;100427.41;;;9.70;99.54
80333;BME280;69652;51.864;-2.246;2024-02-21T09:01:07;100412.56;;;9.68;99.07
80333;BME280;69652;51.864;-2.246;2024-02-21T09:03:38;100400.00;;;9.72;99.27
80333;BME280;69652;51.864;-2.246;2024-02-21T09:06:09;100398.91;;;9.73;99.34
80333;BME280;69652;51.864;-2.246;2024-02-21T09:08:35;100369.28;;;9.76;98.89
80333;BME280;69652;51.864;-2.246;2024-02-21T09:11:01;100365.16;;;9.79;98.51
80333;BME280;69652;51.864;-2.246;2024-02-21T09:13:27;100362.94;;;9.81;98.60
80333;BME280;69652;51.864;-2.246;2024-02-21T09:15:52;100360.22;;;9.81;98.37
80333;BME280;69652;51.864;-2.246;2024-02-21T09:18:18;100343.06;;;9.86;98.71
80333;BME280;69652;51.864;-2.246;2024-02-21T09:20:44;100357.59;;;9.90;98.44
80333;BME280;69652;51.864;-2.246;2024-02-21T09:23:10;100374.16;;;9.88;98.20
80333;BME280;69652;51.864;-2.246;2024-02-21T09:25:35;100321.72;;;9.93;98.01
80333;BME280;69652;51.864;-2.246;2024-02-21T09:28:02;100325.22;;;9.93;98.59
80333;BME280;69652;51.864;-2.246;2024-02-21T09:30:28;100323.97;;;9.91;98.28
80333;BME280;69652;51.864;-2.246;2024-02-21T09:32:54;100309.78;;;9.94;97.84
80333;BME280;69652;51.864;-2.246;2024-02-21T09:35:19;100312.97;;;9.96;98.21
80333;BME280;69652;51.864;-2.246;2024-02-21T09:37:47;100287.47;;;9.97;98.42
80333;BME280;69652;51.864;-2.246;2024-02-21T09:40:15;100293.19;;;9.95;98.23
80333;BME280;69652;51.864;-2.246;2024-02-21T09:42:42;100279.84;;;9.99;97.75
80333;BME280;69652;51.864;-2.246;2024-02-21T09:45:21;100275.72;;;10.01;97.87
80333;BME280;69652;51.864;-2.246;2024-02-21T09:50:23;100239.50;;;10.06;97.59
80333;BME280;69652;51.864;-2.246;2024-02-21T09:52:51;100245.88;;;10.01;97.89
80333;BME280;69652;51.864;-2.246;2024-02-21T09:55:18;100256.88;;;10.05;97.56
80333;BME280;69652;51.864;-2.246;2024-02-21T09:57:45;100240.00;;;10.08;98.20
80333;BME280;69652;51.864;-2.246;2024-02-21T10:00:11;100222.81;;;10.12;97.83
80333;BME280;69652;51.864;-2.246;2024-02-21T10:02:39;100218.50;;;10.11;98.56
80333;BME280;69652;51.864;-2.246;2024-02-21T10:05:05;100225.03;;;10.10;98.18
80333;BME280;69652;51.864;-2.246;2024-02-21T10:07:33;100179.56;;;10.16;98.26
80333;BME280;69652;51.864;-2.246;2024-02-21T10:10:03;100182.63;;;10.14;97.82
80333;BME280;69652;51.864;-2.246;2024-02-21T10:12:29;100194.25;;;10.15;98.13
80333;BME280;69652;51.864;-2.246;2024-02-21T10:15:05;100179.25;;;10.18;98.45
80333;BME280;69652;51.864;-2.246;2024-02-21T10:17:34;100156.97;;;10.21;98.13
80333;BME280;69652;51.864;-2.246;2024-02-21T10:20:09;100169.44;;;10.22;98.05
80333;BME280;69652;51.864;-2.246;2024-02-21T10:22:38;100171.84;;;10.23;98.59
80333;BME280;69652;51.864;-2.246;2024-02-21T10:25:11;100154.13;;;10.26;97.74
80333;BME280;69652;51.864;-2.246;2024-02-21T10:27:38;100150.16;;;10.32;98.27
80333;BME280;69652;51.864;-2.246;2024-02-21T10:30:12;100131.66;;;10.34;97.65
80333;BME280;69652;51.864;-2.246;2024-02-21T10:32:52;100138.38;;;10.36;96.97
80333;BME280;69652;51.864;-2.246;2024-02-21T10:35:29;100152.72;;;10.37;97.18
80333;BME280;69652;51.864;-2.246;2024-02-21T10:37:56;100151.28;;;10.39;96.75
80333;BME280;69652;51.864;-2.246;2024-02-21T10:40:26;100154.34;;;10.38;96.86
80333;BME280;69652;51.864;-2.246;2024-02-21T10:42:59;100131.19;;;10.40;96.94
80333;BME280;69652;51.864;-2.246;2024-02-21T10:45:32;100111.88;;;10.42;97.33
80333;BME280;69652;51.864;-2.246;2024-02-21T10:50:43;100105.38;;;10.60;96.46
80333;BME280;69652;51.864;-2.246;2024-02-21T10:53:18;100111.41;;;10.66;96.29
80333;BME280;69652;51.864;-2.246;2024-02-21T10:55:58;100093.22;;;10.66;95.95
80333;BME280;69652;51.864;-2.246;2024-02-21T10:58:28;100093.72;;;10.68;96.25
80333;BME280;69652;51.864;-2.246;2024-02-21T11:00:55;100062.56;;;10.74;96.47
80333;BME280;69652;51.864;-2.246;2024-02-21T11:03:21;100070.56;;;10.71;95.92
80333;BME280;69652;51.864;-2.246;2024-02-21T11:05:48;100051.72;;;10.83;94.34
80333;BME280;69652;51.864;-2.246;2024-02-21T11:08:14;100082.84;;;10.94;93.31
80333;BME280;69652;51.864;-2.246;2024-02-21T11:10:39;100072.13;;;10.98;94.53
80333;BME280;69652;51.864;-2.246;2024-02-21T11:15:32;100063.84;;;10.94;94.08
80333;BME280;69652;51.864;-2.246;2024-02-21T11:17:58;100075.03;;;10.93;93.58
80333;BME280;69652;51.864;-2.246;2024-02-21T11:20:34;100053.63;;;10.91;93.45
80333;BME280;69652;51.864;-2.246;2024-02-21T11:23:00;100029.63;;;11.02;92.80
80333;BME280;69652;51.864;-2.246;2024-02-21T11:25:26;100016.84;;;11.02;92.14
80333;BME280;69652;51.864;-2.246;2024-02-21T11:28:03;99990.66;;;11.06;92.84
80333;BME280;69652;51.864;-2.246;2024-02-21T11:30:35;100013.50;;;11.05;92.32
80333;BME280;69652;51.864;-2.246;2024-02-21T11:33:06;99995.09;;;11.11;92.49
80333;BME280;69652;51.864;-2.246;2024-02-21T11:35:36;99998.31;;;11.04;92.97
80333;BME280;69652;51.864;-2.246;2024-02-21T11:38:11;99976.41;;;11.18;93.35
80333;BME280;69652;51.864;-2.246;2024-02-21T11:40:41;99991.78;;;11.05;92.73
80333;BME280;69652;51.864;-2.246;2024-02-21T11:43:07;99976.75;;;11.08;93.66
80333;BME280;69652;51.864;-2.246;2024-02-21T11:45:33;99998.81;;;11.06;93.19
80333;BME280;69652;51.864;-2.246;2024-02-21T11:47:59;99954.41;;;11.02;93.82
80333;BME280;69652;51.864;-2.246;2024-02-21T11:50:30;99953.44;;;11.07;93.31
80333;BME280;69652;51.864;-2.246;2024-02-21T11:52:57;99947.16;;;11.15;92.61
80333;BME280;69652;51.864;-2.246;2024-02-21T11:55:23;99949.72;;;11.11;93.41
80333;BME280;69652;51.864;-2.246;2024-02-21T11:57:49;99948.75;;;11.16;93.56
80333;BME280;69652;51.864;-2.246;2024-02-21T12:00:15;99934.84;;;11.17;93.85
80333;BME280;69652;51.864;-2.246;2024-02-21T12:02:44;99923.38;;;11.12;94.33
80333;BME280;69652;51.864;-2.246;2024-02-21T12:05:13;99918.94;;;11.07;94.94
80333;BME280;69652;51.864;-2.246;2024-02-21T12:07:40;99914.41;;;11.11;95.14
80333;BME280;69652;51.864;-2.246;2024-02-21T12:10:12;99909.78;;;11.12;95.50
80333;BME280;69652;51.864;-2.246;2024-02-21T12:12:38;99889.69;;;11.04;95.81
80333;BME280;69652;51.864;-2.246;2024-02-21T12:15:05;99901.38;;;11.05;96.20
80333;BME280;69652;51.864;-2.246;2024-02-21T12:17:35;99876.72;;;11.10;95.79
80333;BME280;69652;51.864;-2.246;2024-02-21T12:20:05;99866.63;;;11.19;95.32
80333;BME280;69652;51.864;-2.246;2024-02-21T12:22:31;99859.31;;;11.11;96.13
80333;BME280;69652;51.864;-2.246;2024-02-21T12:25:00;99849.72;;;11.13;96.74
80333;BME280;69652;51.864;-2.246;2024-02-21T12:27:28;99833.03;;;11.23;96.83
80333;BME280;69652;51.864;-2.246;2024-02-21T12:29:54;99841.19;;;11.23;96.33
80333;BME280;69652;51.864;-2.246;2024-02-21T12:32:19;99819.75;;;11.31;96.94
80333;BME280;69652;51.864;-2.246;2024-02-21T12:34:45;99823.59;;;11.30;95.95
80333;BME280;69652;51.864;-2.246;2024-02-21T12:37:11;99811.19;;;11.41;96.05
80333;BME280;69652;51.864;-2.246;2024-02-21T12:39:41;99808.63;;;11.44;95.87
80333;BME280;69652;51.864;-2.246;2024-02-21T12:42:07;99802.19;;;11.49;95.45
80333;BME280;69652;51.864;-2.246;2024-02-21T12:44:32;99806.63;;;11.53;95.54
80333;BME280;69652;51.864;-2.246;2024-02-21T12:46:59;99801.78;;;11.59;96.05
80333;BME280;69652;51.864;-2.246;2024-02-21T12:49:24;99806.38;;;11.67;96.25
80333;BME280;69652;51.864;-2.246;2024-02-21T12:51:52;99809.53;;;11.69;96.01
80333;BME280;69652;51.864;-2.246;2024-02-21T12:54:18;99801.84;;;11.71;95.43